Terminal Aerodrome Forecast
Issued by NWS Grand Forks, ND

Home | Current Version | Previous Version | Text Only | Print | Product List | Glossary Off
Versions: 1 2 3 4 5 6 7 8 9 10 11 12 13 14 15 16

000
FTUS43 KFGF 242320
TAFGFK
TAF
KGFK 242320Z 2500/2524 28008KT P6SM SCT050 SCT150
     FM250300 27006KT P6SM FEW250
     FM252000 23005KT P6SM FEW250=

USA.gov is the U.S. government's official web portal to all federal, state and local government web resources and services.